Time;durP1;ratioP1;P1;durP2;ratioP2;P2;SDS_P1;SDS_P2;PMS_P1;PMS_P2;Temp;Humidity;BMP_temperature;BMP_pressure;BME280_temperature;BME280_humidity;BME280_pressure;Samples;Min_cycle;Max_cycle;Signal;HPM_P1;HPM_P2
2021/04/30 00:00:59;;;;;;;37.97;24.77;;;;;;;5.85;90.93;100393.28;5074292;28;20457;-64
2021/04/30 00:03:24;;;;;;;36.97;24.07;;;;;;;5.85;90.66;100398.59;5091987;28;20047;-64
2021/04/30 00:05:50;;;;;;;36.50;23.90;;;;;;;5.85;90.54;100399.44;5074127;28;20050;-64
2021/04/30 00:08:15;;;;;;;33.33;21.33;;;;;;;5.81;90.48;100398.06;5073760;28;20128;-64
2021/04/30 00:10:42;;;;;;;38.07;25.03;;;;;;;5.83;90.43;100401.41;5074159;28;20039;-64
2021/04/30 00:13:07;;;;;;;;;;;;;;;5.84;90.39;100403.06;5092289;28;20074;-64
2021/04/30 00:15:33;;;;;;;;;;;;;;;5.81;90.15;100410.47;5057904;28;19951;-64
2021/04/30 00:18:04;;;;;;;32.70;20.73;;;;;;;5.80;89.91;100414.06;5073560;28;20264;-64
2021/04/30 00:20:34;;;;;;;31.63;19.90;;;;;;;5.67;89.90;100411.72;5073977;28;20028;-64
2021/04/30 00:23:00;;;;;;;29.58;18.88;;;;;;;5.76;90.45;100416.19;5074146;28;20038;-64
2021/04/30 00:25:25;;;;;;;33.95;21.80;;;;;;;5.74;90.22;100419.94;5091687;28;20040;-64
2021/04/30 00:27:51;;;;;;;29.63;19.75;;;;;;;5.64;90.58;100422.56;5073414;28;20445;-64
2021/04/30 00:30:17;;;;;;;28.97;18.33;;;;;;;5.62;90.76;100421.88;5091622;28;20377;-64
2021/04/30 00:32:42;;;;;;;35.05;20.45;;;;;;;5.66;90.43;100431.22;5091366;28;20032;-64
2021/04/30 00:35:08;;;;;;;28.93;17.87;;;;;;;5.66;90.77;100428.56;5073643;28;20050;-64
2021/04/30 00:37:37;;;;;;;27.55;17.63;;;;;;;5.52;90.18;100431.63;5073258;28;20036;-64
2021/04/30 00:40:07;;;;;;;27.42;17.35;;;;;;;5.60;90.39;100437.09;5056967;28;20605;-64
2021/04/30 00:42:33;;;;;;;24.63;15.57;;;;;;;5.62;90.34;100430.66;5091427;28;20043;-64
2021/04/30 00:44:59;;;;;;;27.70;17.60;;;;;;;5.54;90.10;100435.81;5091453;28;20043;-63
2021/04/30 00:47:33;;;;;;;29.17;18.90;;;;;;;5.58;90.47;100437.22;5091192;28;20096;-64
2021/04/30 00:50:04;;;;;;;25.60;17.23;;;;;;;5.60;90.46;100437.09;5073521;28;20138;-64
2021/04/30 00:52:30;;;;;;;27.58;17.23;;;;;;;5.56;90.84;100447.09;5091309;28;20044;-64
2021/04/30 00:54:55;;;;;;;27.77;19.30;;;;;;;5.62;90.77;100440.41;5073692;28;20078;-64
2021/04/30 00:57:23;;;;;;;30.80;18.92;;;;;;;5.63;90.57;100442.09;5073511;28;20062;-64
2021/04/30 00:59:49;;;;;;;30.23;18.33;;;;;;;5.50;90.64;100461.75;5056541;28;20055;-64
2021/04/30 01:02:15;;;;;;;27.80;18.40;;;;;;;5.54;91.08;100456.16;5091241;28;20043;-64
2021/04/30 01:04:40;;;;;;;29.10;18.85;;;;;;;5.54;90.75;100464.09;5073380;28;20047;-64
2021/04/30 01:07:05;;;;;;;20.17;13.30;;;;;;;5.55;90.94;100471.94;5091187;28;20032;-64
2021/04/30 01:09:31;;;;;;;29.50;17.87;;;;;;;5.58;90.97;100478.75;5057247;28;20465;-64
2021/04/30 01:11:57;;;;;;;28.30;18.80;;;;;;;5.62;90.71;100478.34;5077587;28;20040;-64
2021/04/30 01:14:22;;;;;;;33.25;19.77;;;;;;;5.60;90.58;100479.47;5095112;28;20028;-64
2021/04/30 01:16:48;;;;;;;43.50;21.93;;;;;;;5.64;90.40;100476.41;5095359;28;20475;-64
2021/04/30 01:19:22;;;;;;;30.58;20.30;;;;;;;5.66;90.77;100484.19;5095037;28;20024;-64
2021/04/30 01:21:58;;;;;;;28.10;17.70;;;;;;;5.66;90.49;100489.50;5095217;28;20032;-64
2021/04/30 01:24:24;;;;;;;26.73;18.42;;;;;;;5.59;90.40;100501.59;5077374;28;20176;-64
2021/04/30 01:26:51;;;;;;;33.35;19.33;;;;;;;5.72;90.00;100489.78;5095048;28;20028;-64
2021/04/30 01:29:17;;;;;;;31.30;19.55;;;;;;;5.68;89.89;100500.78;5076701;28;20051;-63
2021/04/30 01:31:43;;;;;;;28.00;18.42;;;;;;;5.64;89.73;100500.25;5060462;28;20031;-64
2021/04/30 01:34:09;;;;;;;;;;;;;;;5.62;89.91;100506.63;5095440;28;20038;-64
2021/04/30 01:36:34;;;;;;;;;;;;;;;5.57;89.59;100511.50;5077528;28;19915;-64
2021/04/30 01:39:02;;;;;;;28.00;17.73;;;;;;;5.58;90.21;100513.19;5076934;28;19923;-64
2021/04/30 01:41:27;;;;;;;26.10;16.67;;;;;;;5.60;90.31;100512.06;5094721;28;20035;-64
2021/04/30 01:43:53;;;;;;;28.13;18.83;;;;;;;5.46;90.23;100515.94;5094792;28;20039;-64
2021/04/30 01:46:18;;;;;;;32.40;19.50;;;;;;;5.47;90.17;100522.06;5094834;28;20971;-64
2021/04/30 01:48:44;;;;;;;36.67;20.60;;;;;;;5.45;90.33;100524.00;5076531;28;20032;-63
2021/04/30 01:51:09;;;;;;;35.93;20.93;;;;;;;5.50;90.34;100533.22;5094689;28;20294;-63
2021/04/30 01:53:36;;;;;;;32.30;21.00;;;;;;;5.52;90.64;100532.25;5094553;28;20087;-64
2021/04/30 01:56:06;;;;;;;31.98;19.92;;;;;;;5.49;90.16;100542.13;5076582;28;20036;-64
2021/04/30 01:58:31;;;;;;;33.58;20.98;;;;;;;5.53;90.02;100536.59;5094179;28;20078;-64
2021/04/30 02:00:57;;;;;;;33.37;20.93;;;;;;;5.45;89.89;100546.00;5094532;28;20314;-64
2021/04/30 02:03:24;;;;;;;29.88;21.17;;;;;;;5.45;89.68;100550.47;5094456;28;20032;-63
2021/04/30 02:05:50;;;;;;;32.15;21.38;;;;;;;5.53;89.82;100558.59;5076402;28;20344;-64
2021/04/30 02:08:16;;;;;;;34.70;22.73;;;;;;;5.47;90.07;100556.47;5093950;28;20120;-64
2021/04/30 02:10:44;;;;;;;34.85;22.20;;;;;;;5.50;90.35;100559.72;5094004;28;20047;-64
2021/04/30 02:13:10;;;;;;;38.05;24.05;;;;;;;5.53;90.35;100569.19;5076404;28;20036;-64
2021/04/30 02:15:41;;;;;;;43.03;24.73;;;;;;;5.47;90.46;100564.44;5094280;28;20539;-64
2021/04/30 02:18:06;;;;;;;37.45;23.73;;;;;;;5.49;90.70;100568.63;5076188;28;20058;-64
2021/04/30 02:20:32;;;;;;;37.10;22.60;;;;;;;5.48;90.79;100572.25;5093814;28;20039;-64
2021/04/30 02:22:58;;;;;;;32.33;21.50;;;;;;;5.47;90.65;100575.84;5093936;28;20032;-64
2021/04/30 02:25:24;;;;;;;38.72;22.98;;;;;;;5.46;90.99;100576.84;5093958;28;20074;-63
2021/04/30 02:27:52;;;;;;;42.58;25.33;;;;;;;5.43;90.75;100576.25;5075705;28;20052;-63
2021/04/30 02:30:19;;;;;;;38.90;23.63;;;;;;;5.50;90.91;100575.59;5093892;28;20024;-63
2021/04/30 02:32:46;;;;;;;37.63;23.10;;;;;;;5.56;90.44;100579.50;5093917;28;20071;-64
2021/04/30 02:35:19;;;;;;;37.67;25.00;;;;;;;5.51;90.32;100576.44;5076089;28;20060;-64
2021/04/30 02:37:46;;;;;;;40.95;27.02;;;;;;;5.48;90.18;100582.84;5093388;28;20471;-64
2021/04/30 02:40:14;;;;;;;38.03;24.50;;;;;;;5.54;90.35;100570.88;5093779;28;20101;-64
2021/04/30 02:42:40;;;;;;;38.35;26.35;;;;;;;5.54;90.50;100585.91;5075698;28;20154;-64
2021/04/30 02:45:06;;;;;;;40.27;25.27;;;;;;;5.54;90.28;100592.03;5093676;28;20127;-64
2021/04/30 02:47:33;;;;;;;;;;;;;;;5.48;90.07;100589.97;5093780;28;20024;-64
2021/04/30 02:49:59;;;;;;;42.40;27.15;;;;;;;5.47;90.14;100583.78;5093459;28;19927;-63
2021/04/30 02:52:25;;;;;;;42.45;27.65;;;;;;;5.52;90.14;100593.16;5093410;28;20372;-63
2021/04/30 02:54:51;;;;;;;43.88;27.00;;;;;;;5.54;90.06;100591.22;5075695;28;20114;-64
2021/04/30 02:57:17;;;;;;;44.35;28.52;;;;;;;5.50;89.79;100596.78;5093343;28;20115;-64
2021/04/30 02:59:43;;;;;;;47.53;31.88;;;;;;;5.55;89.56;100598.19;5093075;28;20342;-64
2021/04/30 03:02:08;;;;;;;50.57;27.77;;;;;;;5.54;89.68;100602.66;5093381;28;20048;-63
2021/04/30 03:04:34;;;;;;;51.08;31.17;;;;;;;5.51;89.71;100608.22;5093275;28;20032;-63
2021/04/30 03:06:59;;;;;;;45.77;28.53;;;;;;;5.56;89.96;100608.66;5075439;28;20036;-64
2021/04/30 03:09:24;;;;;;;49.07;29.90;;;;;;;5.52;89.72;100609.88;5092833;28;20522;-63
2021/04/30 03:11:50;;;;;;;48.10;30.67;;;;;;;5.55;89.65;100608.78;5058468;28;20043;-64
2021/04/30 03:14:15;;;;;;;52.87;30.73;;;;;;;5.50;89.84;100612.69;5093042;28;20060;-64
2021/04/30 03:16:40;;;;;;;51.93;32.27;;;;;;;5.56;89.76;100611.28;5075187;28;20078;-63
2021/04/30 03:19:06;;;;;;;43.50;27.77;;;;;;;5.54;89.48;100615.06;5058206;28;20036;-63
2021/04/30 03:21:31;;;;;;;46.70;29.77;;;;;;;5.55;89.76;100625.53;5092761;28;20035;-63
2021/04/30 03:23:57;;;;;;;38.13;24.63;;;;;;;5.49;89.62;100621.56;5092965;28;20286;-64
2021/04/30 03:26:22;;;;;;;41.53;28.53;;;;;;;5.54;89.78;100623.00;5075067;28;20073;-64
2021/04/30 03:28:48;;;;;;;38.10;24.60;;;;;;;5.66;89.10;100633.34;5092381;28;20055;-64
2021/04/30 03:31:13;;;;;;;50.77;27.97;;;;;;;5.66;89.18;100635.16;5092751;28;20027;-63
2021/04/30 03:33:39;;;;;;;40.10;25.47;;;;;;;5.62;89.03;100628.44;5091977;28;20041;-63
2021/04/30 03:36:06;;;;;;;42.97;28.42;;;;;;;5.47;89.05;100636.75;5074610;28;20093;-63
2021/04/30 03:38:32;;;;;;;43.35;27.95;;;;;;;5.53;89.57;100638.06;5074560;28;20060;-64
2021/04/30 03:40:57;;;;;;;;;;;;;;;5.55;89.13;100640.53;5093027;28;20051;-64
2021/04/30 03:43:22;;;;;;;;;;;;;;;5.52;89.15;100638.19;5058342;28;19916;-64
2021/04/30 03:45:50;;;;;;;45.03;27.90;;;;;;;5.56;89.33;100647.53;5058030;28;19995;-63
2021/04/30 03:48:17;;;;;;;46.15;27.25;;;;;;;5.58;89.62;100641.13;5074167;28;20496;-63
2021/04/30 03:50:43;;;;;;;;;;;;;;;5.59;89.49;100641.97;5074743;28;20081;-64
2021/04/30 03:53:08;;;;;;;47.72;29.17;;;;;;;5.59;89.69;100644.63;5057724;28;20319;-64
2021/04/30 03:55:33;;;;;;;48.70;30.30;;;;;;;5.59;89.53;100652.56;5074454;28;20113;-64
2021/04/30 03:57:58;;;;;;;46.13;27.43;;;;;;;5.61;89.85;100654.09;5091945;28;20040;-64
2021/04/30 04:00:24;;;;;;;43.47;26.97;;;;;;;5.59;89.66;100658.69;5092152;28;20036;-64
2021/04/30 04:02:50;;;;;;;47.77;29.77;;;;;;;5.61;89.73;100662.06;5074327;28;20073;-63
2021/04/30 04:05:16;;;;;;;;;;;;;;;5.64;89.60;100655.66;5092423;28;20039;-64
2021/04/30 04:07:41;;;;;;;;;;;;;;;5.60;89.53;100654.25;5074308;28;19912;-64
2021/04/30 04:10:07;;;;;;;52.53;28.90;;;;;;;5.54;89.38;100662.72;5091960;28;19922;-64
2021/04/30 04:12:32;;;;;;;48.42;28.00;;;;;;;5.60;89.63;100670.16;5073930;28;20032;-64
2021/04/30 04:14:58;;;;;;;50.13;30.37;;;;;;;5.57;89.27;100660.66;5091761;28;20469;-64
2021/04/30 04:17:24;;;;;;;53.63;29.42;;;;;;;5.59;89.69;100657.84;5073973;28;20032;-64
2021/04/30 04:19:49;;;;;;;43.63;27.90;;;;;;;5.59;89.22;100669.28;5073702;28;20500;-64
2021/04/30 04:22:16;;;;;;;43.87;26.90;;;;;;;5.61;88.92;100677.09;5074031;28;20048;-64
2021/04/30 04:24:41;;;;;;;44.33;28.98;;;;;;;5.58;88.97;100688.81;5091678;28;20038;-64
2021/04/30 04:27:07;;;;;;;42.63;29.13;;;;;;;5.66;88.96;100686.31;5057147;28;20039;-64
2021/04/30 04:29:33;;;;;;;43.22;29.00;;;;;;;5.69;88.82;100690.53;5073525;28;20059;-65
2021/04/30 04:31:59;;;;;;;40.58;26.13;;;;;;;5.69;88.71;100690.53;5073721;28;20043;-65
2021/04/30 04:34:24;;;;;;;40.43;26.43;;;;;;;5.65;88.74;100697.06;5091480;28;20048;-64
2021/04/30 04:36:49;;;;;;;44.27;27.50;;;;;;;5.73;88.58;100707.84;5091440;28;20035;-64
2021/04/30 04:39:15;;;;;;;50.07;28.60;;;;;;;5.70;88.65;100705.47;5091273;28;20110;-65
2021/04/30 04:41:40;;;;;;;40.77;26.57;;;;;;;5.70;88.63;100697.50;5073632;28;20024;-64
2021/04/30 04:44:06;;;;;;;40.93;26.57;;;;;;;5.74;88.38;100701.59;5073659;28;20067;-64
2021/04/30 04:46:31;;;;;;;47.27;28.33;;;;;;;5.64;87.78;100709.47;5073747;28;20036;-64
2021/04/30 04:48:56;;;;;;;44.50;28.03;;;;;;;5.74;88.54;100714.81;5090970;28;20456;-64
2021/04/30 04:51:21;;;;;;;43.43;27.20;;;;;;;5.79;88.23;100728.50;5091395;28;20037;-64
2021/04/30 04:53:47;;;;;;;47.63;28.07;;;;;;;5.79;88.19;100717.91;5091390;28;20032;-64
2021/04/30 04:56:12;;;;;;;42.27;26.67;;;;;;;5.82;88.21;100722.94;5073573;28;20130;-64
2021/04/30 04:58:38;;;;;;;41.27;26.83;;;;;;;5.79;88.12;100730.31;5072781;28;20039;-64
2021/04/30 05:01:04;;;;;;;46.70;26.27;;;;;;;5.82;87.99;100728.25;5073475;28;20088;-64
2021/04/30 05:03:30;;;;;;;34.50;23.02;;;;;;;5.88;87.88;100737.47;5073516;28;20063;-64
2021/04/30 05:05:55;;;;;;;37.10;24.43;;;;;;;5.93;87.79;100730.81;5073549;28;20673;-64
2021/04/30 05:08:20;;;;;;;40.00;24.53;;;;;;;5.89;87.77;100747.94;5073162;28;20047;-64
2021/04/30 05:10:46;;;;;;;34.47;21.67;;;;;;;5.97;87.83;100733.22;5073378;28;20028;-64
2021/04/30 05:13:11;;;;;;;34.00;22.17;;;;;;;5.92;87.29;100738.88;5073311;28;20506;-64
2021/04/30 05:15:36;;;;;;;37.87;23.07;;;;;;;6.00;87.28;100747.06;5091156;28;20388;-64
2021/04/30 05:18:02;;;;;;;31.57;21.47;;;;;;;5.97;86.92;100755.28;5072877;28;20381;-64
2021/04/30 05:20:27;;;;;;;31.13;20.75;;;;;;;6.03;86.81;100751.25;5073226;28;20350;-64
2021/04/30 05:22:53;;;;;;;29.30;20.73;;;;;;;5.99;86.11;100765.72;5091032;28;20338;-64
2021/04/30 05:25:18;;;;;;;32.38;22.45;;;;;;;6.00;86.25;100767.41;5056566;28;20051;-64
2021/04/30 05:27:44;;;;;;;33.03;21.13;;;;;;;6.03;86.65;100767.16;5090578;28;20040;-64
2021/04/30 05:30:11;;;;;;;36.27;21.80;;;;;;;6.08;86.66;100771.06;5073331;28;20043;-64
2021/04/30 05:32:36;;;;;;;28.27;19.52;;;;;;;6.09;86.56;100785.19;5090886;28;20047;-64
2021/04/30 05:35:03;;;;;;;33.70;21.47;;;;;;;6.12;86.96;100782.25;5090829;28;20092;-64
2021/04/30 05:37:30;;;;;;;32.53;20.30;;;;;;;6.15;86.55;100792.59;5072965;28;20258;-64
2021/04/30 05:39:55;;;;;;;;;;;;;;;6.18;86.22;100789.69;5073555;28;20073;-64
2021/04/30 05:42:20;;;;;;;;;;;;;;;6.57;86.55;100788.97;5073512;28;19911;-64
2021/04/30 05:44:45;;;;;;;25.57;18.23;;;;;;;6.82;84.81;100795.59;5073168;28;19912;-64
2021/04/30 05:47:11;;;;;;;20.37;13.73;;;;;;;7.26;84.03;100796.91;5056338;28;20024;-64
2021/04/30 05:49:36;;;;;;;20.20;15.30;;;;;;;7.49;80.78;100797.47;5072783;28;20043;-63
2021/04/30 05:52:02;;;;;;;23.60;17.00;;;;;;;7.34;81.46;100796.19;5072986;28;20032;-64
2021/04/30 05:54:27;;;;;;;25.30;16.80;;;;;;;7.25;81.74;100794.38;5090819;28;20093;-64
2021/04/30 05:56:53;;;;;;;26.03;17.57;;;;;;;7.07;82.15;100800.41;5093669;28;20290;-64
2021/04/30 05:59:19;;;;;;;23.17;16.75;;;;;;;7.21;82.65;100800.94;5076523;28;20036;-64
2021/04/30 06:01:44;;;;;;;28.30;16.80;;;;;;;7.17;82.60;100805.72;5094424;28;20040;-64
2021/04/30 06:04:09;;;;;;;22.77;16.73;;;;;;;7.26;82.01;100802.22;5094452;28;20044;-64
2021/04/30 06:06:35;;;;;;;26.70;17.23;;;;;;;7.34;82.08;100812.97;5076652;28;20035;-64
2021/04/30 06:09:00;;;;;;;20.17;15.30;;;;;;;7.32;81.17;100819.41;5093944;28;20036;-64
2021/04/30 06:11:26;;;;;;;25.90;17.77;;;;;;;7.66;81.42;100816.31;5094259;28;20028;-64
2021/04/30 06:13:51;;;;;;;25.10;15.30;;;;;;;7.83;79.66;100813.75;5094222;28;20060;-64
2021/04/30 06:16:16;;;;;;;25.03;15.13;;;;;;;7.97;78.86;100833.75;5059551;28;20472;-64
2021/04/30 06:18:42;;;;;;;20.77;14.73;;;;;;;7.92;78.99;100828.00;5093914;28;20043;-65
2021/04/30 06:21:07;;;;;;;21.23;15.27;;;;;;;7.90;77.61;100829.97;5094249;28;20024;-64
2021/04/30 06:23:32;;;;;;;22.40;15.27;;;;;;;8.04;78.02;100828.69;5076323;28;20036;-64
2021/04/30 06:25:58;;;;;;;20.70;13.97;;;;;;;8.19;78.23;100829.06;5076213;28;20569;-65
2021/04/30 06:28:23;;;;;;;20.77;14.83;;;;;;;8.39;76.99;100833.34;5075895;28;20881;-65
2021/04/30 06:30:50;;;;;;;21.87;15.17;;;;;;;8.49;75.29;100840.47;5076263;28;20044;-65
2021/04/30 06:33:16;;;;;;;21.52;14.82;;;;;;;8.68;74.40;100835.03;5093819;28;20044;-65
2021/04/30 06:35:41;;;;;;;18.07;12.93;;;;;;;9.17;73.45;100838.25;5093902;28;20036;-65
2021/04/30 06:38:06;;;;;;;15.23;11.33;;;;;;;9.81;69.50;100838.13;5093397;28;20036;-65
2021/04/30 06:40:32;;;;;;;17.63;13.20;;;;;;;10.38;68.99;100830.53;5075983;28;20032;-65
2021/04/30 06:42:58;;;;;;;16.77;11.23;;;;;;;10.18;68.00;100845.06;5059211;28;20032;-65
2021/04/30 06:45:24;;;;;;;14.75;10.65;;;;;;;9.97;69.22;100846.25;5093797;28;20043;-65
2021/04/30 06:47:49;;;;;;;14.87;11.60;;;;;;;9.69;69.74;100857.06;5093254;28;20028;-65
2021/04/30 06:50:15;;;;;;;14.67;11.50;;;;;;;9.19;70.71;100854.94;5093707;28;20361;-64
2021/04/30 06:52:40;;;;;;;18.63;13.00;;;;;;;9.23;71.64;100863.47;5093603;28;20054;-64
2021/04/30 06:55:07;;;;;;;17.37;11.73;;;;;;;9.24;70.07;100862.47;5075692;28;20051;-64
2021/04/30 06:57:33;;;;;;;15.38;10.82;;;;;;;9.59;67.60;100864.28;5075429;28;20083;-64
2021/04/30 06:59:58;;;;;;;15.10;11.17;;;;;;;10.10;68.81;100875.22;5093378;28;20106;-64
2021/04/30 07:02:23;;;;;;;16.30;10.33;;;;;;;10.71;67.12;100870.75;5075559;28;20040;-64
2021/04/30 07:04:49;;;;;;;13.47;10.40;;;;;;;10.94;64.02;100869.16;5075454;28;20119;-64
2021/04/30 07:07:15;;;;;;;17.25;11.10;;;;;;;11.04;65.39;100881.53;5057634;28;20132;-64
2021/04/30 07:09:41;;;;;;;14.70;10.23;;;;;;;11.37;63.60;100883.28;5092862;28;20035;-64
2021/04/30 07:12:07;;;;;;;19.00;10.70;;;;;;;11.92;63.46;100881.88;5058495;28;20039;-64
2021/04/30 07:14:32;;;;;;;13.40;9.70;;;;;;;11.90;60.88;100881.19;5093039;28;20036;-64
2021/04/30 07:16:57;;;;;;;15.43;9.17;;;;;;;12.31;60.94;100888.34;5058485;28;20036;-64
2021/04/30 07:19:23;;;;;;;12.40;8.43;;;;;;;12.12;59.19;100898.41;5074905;28;20039;-64
2021/04/30 07:21:48;;;;;;;14.20;9.77;;;;;;;11.99;59.31;100895.41;5092958;28;20027;-63
2021/04/30 07:24:13;;;;;;;12.77;8.80;;;;;;;11.86;61.52;100895.06;5058438;28;20574;-64
2021/04/30 07:26:39;;;;;;;14.20;9.20;;;;;;;11.99;61.14;100903.44;5092773;28;20036;-64
2021/04/30 07:29:04;;;;;;;11.30;8.80;;;;;;;12.45;60.38;100911.72;5074611;28;20508;-63
2021/04/30 07:31:31;;;;;;;11.90;8.82;;;;;;;12.38;58.76;100910.75;5058562;28;20148;-63
2021/04/30 07:33:57;;;;;;;12.75;8.70;;;;;;;12.41;60.19;100913.09;5092738;28;20035;-63
2021/04/30 07:36:23;;;;;;;13.37;9.23;;;;;;;12.63;56.73;100909.69;5074848;28;20040;-63
2021/04/30 07:38:48;;;;;;;10.67;8.37;;;;;;;12.39;53.07;100913.25;5092211;28;20074;-64
2021/04/30 07:41:14;;;;;;;9.93;8.03;;;;;;;12.08;58.24;100917.63;5074716;28;20119;-63
2021/04/30 07:43:39;;;;;;;18.53;8.40;;;;;;;12.57;57.28;100917.56;5058095;28;20338;-63
2021/04/30 07:46:05;;;;;;;11.77;9.17;;;;;;;11.97;59.25;100924.19;5093329;28;20111;-69
2021/04/30 07:48:31;;;;;;;10.35;8.45;;;;;;;12.18;56.95;100921.00;5091481;28;20036;-68
2021/04/30 07:50:59;;;;;;;11.75;8.93;;;;;;;11.89;57.34;100926.84;5074480;28;20028;-68
2021/04/30 07:53:25;;;;;;;12.63;7.47;;;;;;;12.42;56.18;100926.31;5074541;28;20040;-69
2021/04/30 07:55:50;;;;;;;15.43;9.13;;;;;;;12.18;57.16;100924.50;5074625;28;20062;-69
2021/04/30 07:58:16;;;;;;;11.53;8.17;;;;;;;12.20;55.96;100935.06;5091981;28;20513;-69
2021/04/30 08:00:41;;;;;;;10.53;7.80;;;;;;;12.14;57.82;100935.72;5092099;28;20116;-68
2021/04/30 08:03:06;;;;;;;11.47;7.83;;;;;;;12.27;56.23;100932.50;5074448;28;20464;-68
2021/04/30 08:05:32;;;;;;;9.57;7.80;;;;;;;11.95;56.91;100950.25;5074345;28;20093;-68
2021/04/30 08:08:00;;;;;;;9.07;7.30;;;;;;;12.17;57.23;100946.91;5091780;28;20036;-68
2021/04/30 08:10:25;;;;;;;11.63;8.50;;;;;;;12.00;56.64;100951.44;5092052;28;20035;-69
2021/04/30 08:12:51;;;;;;;13.93;8.73;;;;;;;11.73;57.06;100949.88;5092088;28;20051;-69
2021/04/30 08:15:16;;;;;;;17.80;9.43;;;;;;;11.35;59.58;100957.47;5091936;28;20088;-69
2021/04/30 08:17:42;;;;;;;10.47;8.03;;;;;;;11.46;58.98;100956.34;5091772;28;20040;-68
2021/04/30 08:20:08;;;;;;;13.88;9.32;;;;;;;11.35;56.34;100960.13;5073785;28;20024;-69
2021/04/30 08:22:35;;;;;;;12.35;9.45;;;;;;;11.39;58.38;100960.66;5091909;28;20083;-68
2021/04/30 08:25:00;;;;;;;11.05;8.35;;;;;;;10.95;56.82;100972.34;5073994;28;20040;-68
2021/04/30 08:27:26;;;;;;;12.73;8.93;;;;;;;10.42;60.01;100972.50;5091625;28;20094;-68
2021/04/30 08:29:51;;;;;;;13.87;9.73;;;;;;;10.25;61.20;100975.03;5073571;28;20171;-68
2021/04/30 08:32:17;;;;;;;14.67;9.23;;;;;;;10.35;63.49;100975.81;5073856;28;20060;-69
2021/04/30 08:34:43;;;;;;;14.50;9.63;;;;;;;9.96;61.48;100975.28;5057666;28;20369;-63
2021/04/30 08:37:09;;;;;;;12.52;9.80;;;;;;;9.76;61.04;100987.09;5073781;28;20043;-63
2021/04/30 08:39:34;;;;;;;11.93;8.98;;;;;;;9.89;63.82;100990.22;5091369;28;20460;-63
2021/04/30 08:42:00;;;;;;;11.93;8.87;;;;;;;9.88;62.79;100996.53;5073727;28;20039;-63
2021/04/30 08:44:26;;;;;;;12.40;8.80;;;;;;;9.98;63.18;100993.81;5091350;28;20123;-63
2021/04/30 08:46:51;;;;;;;13.57;7.90;;;;;;;10.22;62.30;100995.84;5073695;28;20031;-63
2021/04/30 08:49:17;;;;;;;14.93;10.83;;;;;;;10.24;58.89;100999.22;5073161;28;20044;-63
2021/04/30 08:51:42;;;;;;;9.20;5.77;;;;;;;10.48;60.83;101007.44;5091287;28;20106;-63
2021/04/30 08:54:09;;;;;;;14.40;7.77;;;;;;;10.71;58.63;100998.91;5073438;28;20081;-63
2021/04/30 08:56:43;;;;;;;;;;;;;;;10.87;58.94;101000.84;5091710;28;20096;-63
2021/04/30 08:59:09;;;;;;;13.65;7.43;;;;;;;11.28;54.41;101003.72;5072881;28;20201;-63
2021/04/30 09:01:34;;;;;;;11.57;7.28;;;;;;;10.66;58.65;101006.56;5073490;28;20451;-63
2021/04/30 09:04:00;;;;;;;9.83;7.57;;;;;;;11.53;56.72;101012.66;5073177;28;20116;-64
2021/04/30 09:06:38;;;;;;;9.97;8.47;;;;;;;12.64;51.69;101007.81;5072147;28;20062;-63
2021/04/30 09:09:09;;;;;;;10.80;7.40;;;;;;;12.47;52.81;101008.81;5073058;28;20596;-63
2021/04/30 09:11:38;;;;;;;15.30;8.05;;;;;;;12.97;50.05;101010.41;5056421;28;20174;-63
2021/04/30 09:14:20;;;;;;;12.52;8.52;;;;;;;11.58;54.19;101010.34;5091052;28;20729;-63
2021/04/30 09:17:09;;;;;;;11.00;8.10;;;;;;;12.67;53.05;101007.44;5091069;28;20096;-63
2021/04/30 09:19:51;;;;;;;8.95;7.68;;;;;;;12.92;51.57;101004.72;5090767;28;20039;-63
2021/04/30 09:22:25;;;;;;;11.40;8.30;;;;;;;13.01;53.11;101006.34;5091092;28;20423;-63
2021/04/30 09:24:56;;;;;;;13.00;8.40;;;;;;;13.13;52.58;101008.69;5073359;28;20032;-64
2021/04/30 09:27:29;;;;;;;12.57;8.18;;;;;;;13.20;49.74;101001.59;5090503;28;20032;-64
2021/04/30 09:30:22;;;;;;;13.25;9.48;;;;;;;10.77;53.81;101006.31;5056375;28;20059;-64
2021/04/30 09:33:06;;;;;;;14.75;9.85;;;;;;;9.98;56.41;101004.47;5095127;28;20032;-63
2021/04/30 09:35:34;;;;;;;12.52;9.25;;;;;;;10.03;57.31;101003.03;5094941;28;20436;-64
2021/04/30 09:37:59;;;;;;;12.82;9.18;;;;;;;11.41;54.35;101006.78;5076893;28;20048;-64
2021/04/30 09:40:31;;;;;;;12.80;9.90;;;;;;;12.09;52.08;101013.81;5094798;28;20028;-63
2021/04/30 09:43:07;;;;;;;12.65;8.85;;;;;;;12.04;51.95;101008.13;5076686;28;20035;-64
2021/04/30 09:45:35;;;;;;;13.32;8.68;;;;;;;12.45;54.34;101010.81;5060310;28;20036;-64
2021/04/30 09:48:05;;;;;;;10.50;8.82;;;;;;;12.49;54.65;101012.16;5076368;28;20039;-64
2021/04/30 09:50:31;;;;;;;11.15;9.07;;;;;;;12.72;53.61;101011.47;5076802;28;20129;-64
2021/04/30 09:52:59;;;;;;;13.05;9.60;;;;;;;12.90;53.78;101014.78;5094544;28;20338;-64
2021/04/30 09:55:42;;;;;;;8.98;7.55;;;;;;;13.15;53.51;101012.84;5060031;28;20040;-64
2021/04/30 09:58:29;;;;;;;14.00;8.18;;;;;;;12.82;52.00;101014.78;5076252;28;20043;-64
2021/04/30 10:00:57;;;;;;;11.90;9.27;;;;;;;12.99;52.59;101020.94;5094617;28;20373;-64
2021/04/30 10:03:28;;;;;;;14.60;8.80;;;;;;;12.99;51.99;101018.25;5076517;28;20368;-64
2021/04/30 10:06:10;;;;;;;13.07;9.55;;;;;;;12.23;50.19;101023.03;5094525;28;20040;-64
2021/04/30 10:08:36;;;;;;;11.82;9.43;;;;;;;12.46;53.23;101017.84;5076180;28;20190;-64
2021/04/30 10:11:03;;;;;;;15.20;9.18;;;;;;;13.52;51.57;101020.28;5094277;28;20462;-64
2021/04/30 10:13:29;;;;;;;11.40;8.43;;;;;;;13.29;50.54;101017.53;5059590;28;20050;-64
2021/04/30 10:15:55;;;;;;;11.13;8.55;;;;;;;13.79;51.12;101018.13;5094102;28;20043;-64
2021/04/30 10:18:20;;;;;;;10.33;8.40;;;;;;;13.63;51.21;101019.06;5075889;28;20040;-64
2021/04/30 10:20:46;;;;;;;11.00;8.20;;;;;;;13.83;49.47;101024.78;5094175;28;20028;-64
2021/04/30 10:23:20;;;;;;;15.88;9.35;;;;;;;12.96;48.42;101010.56;5076320;28;20050;-64
2021/04/30 10:25:49;;;;;;;11.95;9.02;;;;;;;13.19;50.44;101016.88;5076328;28;20047;-64
2021/04/30 10:28:21;;;;;;;12.75;9.20;;;;;;;12.55;51.16;101008.81;5075685;28;20052;-64
2021/04/30 10:30:53;;;;;;;9.93;8.68;;;;;;;13.71;51.24;101010.13;5076047;28;20044;-64
2021/04/30 10:33:58;;;;;;;12.00;8.52;;;;;;;13.79;47.85;101007.41;5093838;28;20574;-64
2021/04/30 10:36:31;;;;;;;14.95;9.05;;;;;;;13.49;50.03;101012.59;5093857;28;20389;-64
2021/04/30 10:38:59;;;;;;;10.07;8.32;;;;;;;13.10;51.05;101016.03;5075545;28;20043;-64
2021/04/30 10:41:36;;;;;;;11.70;9.35;;;;;;;13.32;47.48;101016.34;5093516;28;20074;-64
2021/04/30 10:44:21;;;;;;;11.23;9.02;;;;;;;13.39;49.58;101011.13;5059162;28;20031;-64
2021/04/30 10:46:52;;;;;;;15.45;10.00;;;;;;;13.48;48.71;101016.25;5075838;28;20525;-64
2021/04/30 10:49:20;;;;;;;11.38;8.98;;;;;;;12.75;50.73;101008.44;5075322;28;20044;-64
2021/04/30 10:54:38;;;;;;;11.00;9.77;;;;;;;12.90;51.32;101009.44;5075382;28;20040;-64
2021/04/30 10:57:12;;;;;;;12.05;9.38;;;;;;;13.05;50.98;101018.41;5093539;28;20044;-64
2021/04/30 10:59:40;;;;;;;12.60;8.63;;;;;;;14.89;47.26;101016.91;5075153;28;20441;-64
2021/04/30 11:02:10;;;;;;;9.65;7.82;;;;;;;15.53;44.16;101006.41;5075467;28;20040;-64
2021/04/30 11:04:36;;;;;;;9.35;7.78;;;;;;;16.67;40.35;101011.06;5075624;28;20089;-64
2021/04/30 11:07:03;;;;;;;10.03;8.33;;;;;;;15.45;42.77;101014.56;5093327;28;20040;-66
2021/04/30 11:09:35;;;;;;;11.80;8.57;;;;;;;15.22;43.19;101013.84;5092918;28;20028;-64
2021/04/30 11:12:17;;;;;;;14.25;8.20;;;;;;;16.01;41.31;101009.47;5074619;28;20039;-64
2021/04/30 11:15:05;;;;;;;13.20;8.30;;;;;;;16.48;39.55;101009.03;5057748;28;20174;-64
2021/04/30 11:18:01;;;;;;;11.55;7.55;;;;;;;16.57;40.37;101021.34;5073940;28;20417;-64
2021/04/30 11:20:29;;;;;;;11.32;8.45;;;;;;;13.55;46.10;101010.22;5072867;28;20036;-64
2021/04/30 11:23:13;;;;;;;10.23;8.30;;;;;;;12.96;47.89;101016.75;5074306;28;20094;-64
2021/04/30 11:28:32;;;;;;;17.35;8.82;;;;;;;14.03;46.87;101019.81;5091474;28;20042;-71